sensor_id;sensor_type;location;lat;lon;timestamp;P1;P2;P0
55304;PMS7003;65692;51.378;19.824;2023-05-21T02:44:12;29.33;29.33;21.67
55304;PMS7003;65692;51.378;19.824;2023-05-21T03:02:18;32.33;29.33;22.33
55304;PMS7003;65692;51.378;19.824;2023-05-21T03:08:56;31.00;27.50;22.75
55304;PMS7003;65692;51.378;19.824;2023-05-21T03:11:23;28.00;24.50;20.25
55304;PMS7003;65692;51.378;19.824;2023-05-21T03:13:50;23.50;22.50;17.50
55304;PMS7003;65692;51.378;19.824;2023-05-21T03:16:18;25.50;25.50;20.75
55304;PMS7003;65692;51.378;19.824;2023-05-21T03:18:45;27.75;26.00;19.75
55304;PMS7003;65692;51.378;19.824;2023-05-21T03:21:11;26.75;22.25;16.00
55304;PMS7003;65692;51.378;19.824;2023-05-21T03:23:38;23.75;22.25;17.75
55304;PMS7003;65692;51.378;19.824;2023-05-21T03:26:07;27.75;25.00;19.75
55304;PMS7003;65692;51.378;19.824;2023-05-21T03:28:34;28.75;26.25;20.75
55304;PMS7003;65692;51.378;19.824;2023-05-21T03:31:00;30.75;29.00;19.50
55304;PMS7003;65692;51.378;19.824;2023-05-21T03:33:27;33.50;25.50;20.00
55304;PMS7003;65692;51.378;19.824;2023-05-21T03:35:53;21.75;21.00;16.50
55304;PMS7003;65692;51.378;19.824;2023-05-21T03:38:20;26.00;25.00;18.75
55304;PMS7003;65692;51.378;19.824;2023-05-21T03:40:47;24.00;22.25;18.50
55304;PMS7003;65692;51.378;19.824;2023-05-21T03:43:14;35.25;26.75;19.50
55304;PMS7003;65692;51.378;19.824;2023-05-21T03:45:40;29.00;24.00;19.25
55304;PMS7003;65692;51.378;19.824;2023-05-21T03:48:09;22.50;18.75;13.50
55304;PMS7003;65692;51.378;19.824;2023-05-21T03:50:36;24.75;23.25;18.75
55304;PMS7003;65692;51.378;19.824;2023-05-21T03:53:02;28.75;25.50;18.75
55304;PMS7003;65692;51.378;19.824;2023-05-21T03:55:29;28.00;26.25;20.25
55304;PMS7003;65692;51.378;19.824;2023-05-21T03:57:56;20.25;20.25;15.25
55304;PMS7003;65692;51.378;19.824;2023-05-21T04:00:22;26.75;23.00;17.25
55304;PMS7003;65692;51.378;19.824;2023-05-21T04:02:49;21.75;21.75;17.25
55304;PMS7003;65692;51.378;19.824;2023-05-21T04:05:16;24.50;22.00;18.00
55304;PMS7003;65692;51.378;19.824;2023-05-21T04:07:42;21.25;15.25;13.25
55304;PMS7003;65692;51.378;19.824;2023-05-21T04:10:11;25.75;23.25;17.25
55304;PMS7003;65692;51.378;19.824;2023-05-21T04:12:38;27.50;24.75;18.25
55304;PMS7003;65692;51.378;19.824;2023-05-21T04:15:04;20.75;18.00;13.75
55304;PMS7003;65692;51.378;19.824;2023-05-21T04:17:31;20.25;19.00;15.75
55304;PMS7003;65692;51.378;19.824;2023-05-21T04:19:59;23.50;18.50;14.00
55304;PMS7003;65692;51.378;19.824;2023-05-21T04:22:26;22.00;19.00;16.50
55304;PMS7003;65692;51.378;19.824;2023-05-21T04:24:53;20.50;18.75;15.25
55304;PMS7003;65692;51.378;19.824;2023-05-21T04:27:22;20.75;18.75;14.75
55304;PMS7003;65692;51.378;19.824;2023-05-21T04:29:49;24.75;18.75;16.00
55304;PMS7003;65692;51.378;19.824;2023-05-21T04:32:16;16.25;16.25;11.50
55304;PMS7003;65692;51.378;19.824;2023-05-21T04:34:43;18.00;16.50;13.50
55304;PMS7003;65692;51.378;19.824;2023-05-21T04:37:09;18.50;15.00;13.00
55304;PMS7003;65692;51.378;19.824;2023-05-21T04:39:36;17.25;17.00;13.50
55304;PMS7003;65692;51.378;19.824;2023-05-21T04:42:03;21.00;14.75;11.50
55304;PMS7003;65692;51.378;19.824;2023-05-21T04:44:30;13.50;13.50;12.25
55304;PMS7003;65692;51.378;19.824;2023-05-21T04:46:57;18.25;16.75;14.75
55304;PMS7003;65692;51.378;19.824;2023-05-21T04:49:24;21.50;18.00;14.00
55304;PMS7003;65692;51.378;19.824;2023-05-21T04:51:51;16.50;16.50;13.75
55304;PMS7003;65692;51.378;19.824;2023-05-21T04:54:17;15.00;14.00;12.00
55304;PMS7003;65692;51.378;19.824;2023-05-21T04:56:44;15.25;15.25;12.25
55304;PMS7003;65692;51.378;19.824;2023-05-21T04:59:12;15.00;15.00;13.00
55304;PMS7003;65692;51.378;19.824;2023-05-21T05:01:39;17.25;17.25;13.50
55304;PMS7003;65692;51.378;19.824;2023-05-21T05:04:06;16.50;14.50;11.50
55304;PMS7003;65692;51.378;19.824;2023-05-21T05:06:33;15.75;15.00;12.75
55304;PMS7003;65692;51.378;19.824;2023-05-21T05:08:59;15.50;15.25;13.25
55304;PMS7003;65692;51.378;19.824;2023-05-21T05:11:26;16.75;14.25;10.25
55304;PMS7003;65692;51.378;19.824;2023-05-21T05:13:53;18.25;18.25;13.25
55304;PMS7003;65692;51.378;19.824;2023-05-21T05:16:20;15.25;11.25;9.50
55304;PMS7003;65692;51.378;19.824;2023-05-21T05:18:51;13.75;12.50;10.75
55304;PMS7003;65692;51.378;19.824;2023-05-21T05:21:19;20.00;16.25;12.50
55304;PMS7003;65692;51.378;19.824;2023-05-21T05:23:45;15.75;13.00;10.00
55304;PMS7003;65692;51.378;19.824;2023-05-21T05:26:12;16.75;14.50;11.00
55304;PMS7003;65692;51.378;19.824;2023-05-21T05:28:39;11.75;11.75;9.00
55304;PMS7003;65692;51.378;19.824;2023-05-21T05:31:06;14.00;12.75;10.25
55304;PMS7003;65692;51.378;19.824;2023-05-21T05:33:33;13.75;13.50;11.00
55304;PMS7003;65692;51.378;19.824;2023-05-21T05:36:00;15.25;15.25;12.00
55304;PMS7003;65692;51.378;19.824;2023-05-21T05:38:27;12.25;9.00;8.00
55304;PMS7003;65692;51.378;19.824;2023-05-21T05:40:53;13.50;12.00;10.50
55304;PMS7003;65692;51.378;19.824;2023-05-21T05:43:20;14.00;11.00;9.75
55304;PMS7003;65692;51.378;19.824;2023-05-21T05:45:46;12.25;11.75;8.75
55304;PMS7003;65692;51.378;19.824;2023-05-21T05:48:13;10.75;10.00;8.75
55304;PMS7003;65692;51.378;19.824;2023-05-21T05:50:40;8.75;8.00;7.00
55304;PMS7003;65692;51.378;19.824;2023-05-21T05:53:07;10.00;9.75;8.25
55304;PMS7003;65692;51.378;19.824;2023-05-21T05:55:34;10.00;8.50;7.00
55304;PMS7003;65692;51.378;19.824;2023-05-21T05:58:01;7.50;7.25;5.75
55304;PMS7003;65692;51.378;19.824;2023-05-21T06:00:27;8.75;6.50;5.75
55304;PMS7003;65692;51.378;19.824;2023-05-21T06:02:54;11.00;9.00;8.00
55304;PMS7003;65692;51.378;19.824;2023-05-21T06:05:20;8.25;7.25;6.25
55304;PMS7003;65692;51.378;19.824;2023-05-21T06:07:47;10.00;7.50;6.50
55304;PMS7003;65692;51.378;19.824;2023-05-21T06:10:14;9.75;9.25;8.00
55304;PMS7003;65692;51.378;19.824;2023-05-21T06:12:41;9.25;8.75;7.25
55304;PMS7003;65692;51.378;19.824;2023-05-21T06:15:08;13.00;10.00;8.00
55304;PMS7003;65692;51.378;19.824;2023-05-21T06:17:34;5.00;5.00;5.00
55304;PMS7003;65692;51.378;19.824;2023-05-21T06:20:01;9.00;6.50;6.00
55304;PMS7003;65692;51.378;19.824;2023-05-21T06:22:29;8.75;8.00;7.00
55304;PMS7003;65692;51.378;19.824;2023-05-21T06:24:55;6.00;6.00;5.00
55304;PMS7003;65692;51.378;19.824;2023-05-21T06:27:22;7.00;7.00;6.00
55304;PMS7003;65692;51.378;19.824;2023-05-21T06:29:48;7.25;7.25;7.00
55304;PMS7003;65692;51.378;19.824;2023-05-21T06:32:15;4.50;4.25;3.75
55304;PMS7003;65692;51.378;19.824;2023-05-21T06:34:42;7.00;7.00;5.25
55304;PMS7003;65692;51.378;19.824;2023-05-21T06:37:08;9.00;7.25;6.50
55304;PMS7003;65692;51.378;19.824;2023-05-21T06:39:35;8.00;6.25;5.50
55304;PMS7003;65692;51.378;19.824;2023-05-21T06:42:02;8.75;7.25;6.00
55304;PMS7003;65692;51.378;19.824;2023-05-21T06:44:28;6.75;6.25;6.00
55304;PMS7003;65692;51.378;19.824;2023-05-21T06:46:55;4.75;4.00;3.00
55304;PMS7003;65692;51.378;19.824;2023-05-21T06:49:22;7.50;7.25;5.75
55304;PMS7003;65692;51.378;19.824;2023-05-21T06:51:48;8.25;8.25;6.75
55304;PMS7003;65692;51.378;19.824;2023-05-21T06:54:15;6.75;6.75;5.75
55304;PMS7003;65692;51.378;19.824;2023-05-21T06:56:41;7.50;6.00;5.00
55304;PMS7003;65692;51.378;19.824;2023-05-21T06:59:08;7.25;6.00;5.00
55304;PMS7003;65692;51.378;19.824;2023-05-21T07:01:35;5.75;4.75;4.50
55304;PMS7003;65692;51.378;19.824;2023-05-21T07:04:02;7.00;7.00;6.00
55304;PMS7003;65692;51.378;19.824;2023-05-21T07:06:29;6.00;4.75;4.25
55304;PMS7003;65692;51.378;19.824;2023-05-21T07:08:55;6.50;6.50;5.75
55304;PMS7003;65692;51.378;19.824;2023-05-21T07:11:22;7.00;7.00;5.50
55304;PMS7003;65692;51.378;19.824;2023-05-21T07:13:50;4.00;3.00;3.00
55304;PMS7003;65692;51.378;19.824;2023-05-21T07:16:17;6.75;6.50;6.00
55304;PMS7003;65692;51.378;19.824;2023-05-21T07:18:44;7.25;7.25;5.75
55304;PMS7003;65692;51.378;19.824;2023-05-21T07:21:10;7.50;6.00;4.25
55304;PMS7003;65692;51.378;19.824;2023-05-21T07:23:37;7.25;5.50;4.75
55304;PMS7003;65692;51.378;19.824;2023-05-21T07:26:03;5.50;5.50;4.75
55304;PMS7003;65692;51.378;19.824;2023-05-21T07:28:30;5.25;4.00;4.00
55304;PMS7003;65692;51.378;19.824;2023-05-21T07:30:57;6.00;6.00;5.00
55304;PMS7003;65692;51.378;19.824;2023-05-21T07:33:24;5.00;5.00;4.00
55304;PMS7003;65692;51.378;19.824;2023-05-21T07:35:51;4.25;4.25;3.75
55304;PMS7003;65692;51.378;19.824;2023-05-21T07:38:17;6.25;6.25;5.00
55304;PMS7003;65692;51.378;19.824;2023-05-21T07:40:44;6.00;5.25;4.75
55304;PMS7003;65692;51.378;19.824;2023-05-21T07:43:11;5.00;5.00;4.00
55304;PMS7003;65692;51.378;19.824;2023-05-21T07:45:37;6.75;6.75;5.75
55304;PMS7003;65692;51.378;19.824;2023-05-21T07:48:04;6.25;4.75;4.00
55304;PMS7003;65692;51.378;19.824;2023-05-21T07:50:31;5.25;5.00;4.75
55304;PMS7003;65692;51.378;19.824;2023-05-21T07:52:58;6.75;5.75;4.25
55304;PMS7003;65692;51.378;19.824;2023-05-21T07:55:25;5.00;5.00;4.25
55304;PMS7003;65692;51.378;19.824;2023-05-21T07:57:51;4.00;4.00;4.00
55304;PMS7003;65692;51.378;19.824;2023-05-21T08:00:18;5.25;5.25;3.75
55304;PMS7003;65692;51.378;19.824;2023-05-21T08:02:45;6.25;4.50;4.25
55304;PMS7003;65692;51.378;19.824;2023-05-21T08:05:12;6.00;6.00;5.00
55304;PMS7003;65692;51.378;19.824;2023-05-21T08:07:39;7.00;7.00;5.00
55304;PMS7003;65692;51.378;19.824;2023-05-21T08:10:06;4.75;4.75;4.00
55304;PMS7003;65692;51.378;19.824;2023-05-21T08:12:34;9.00;7.00;6.00
55304;PMS7003;65692;51.378;19.824;2023-05-21T08:15:01;5.75;4.25;4.00
55304;PMS7003;65692;51.378;19.824;2023-05-21T08:17:28;4.25;4.25;4.00
55304;PMS7003;65692;51.378;19.824;2023-05-21T08:19:54;5.75;5.75;4.50
55304;PMS7003;65692;51.378;19.824;2023-05-21T08:22:21;7.00;5.75;5.00
55304;PMS7003;65692;51.378;19.824;2023-05-21T08:24:48;7.00;6.75;5.00
55304;PMS7003;65692;51.378;19.824;2023-05-21T08:27:15;6.50;6.00;5.00
55304;PMS7003;65692;51.378;19.824;2023-05-21T08:29:41;3.25;3.25;2.25
55304;PMS7003;65692;51.378;19.824;2023-05-21T08:32:08;4.75;4.50;4.00
55304;PMS7003;65692;51.378;19.824;2023-05-21T08:34:35;5.00;5.00;3.00
55304;PMS7003;65692;51.378;19.824;2023-05-21T08:37:02;6.75;6.50;5.75
55304;PMS7003;65692;51.378;19.824;2023-05-21T08:39:28;4.75;4.50;4.00
55304;PMS7003;65692;51.378;19.824;2023-05-21T08:41:56;5.00;5.00;4.00
55304;PMS7003;65692;51.378;19.824;2023-05-21T08:44:24;7.00;7.00;5.75
55304;PMS7003;65692;51.378;19.824;2023-05-21T08:46:51;6.75;6.75;5.25
55304;PMS7003;65692;51.378;19.824;2023-05-21T08:49:21;6.75;5.75;3.75
55304;PMS7003;65692;51.378;19.824;2023-05-21T08:51:52;5.50;5.50;3.25
55304;PMS7003;65692;51.378;19.824;2023-05-21T08:54:19;6.50;6.50;4.00
55304;PMS7003;65692;51.378;19.824;2023-05-21T08:56:46;5.00;5.00;4.00
55304;PMS7003;65692;51.378;19.824;2023-05-21T08:59:15;3.75;3.75;3.25
55304;PMS7003;65692;51.378;19.824;2023-05-21T09:01:42;4.75;4.00;4.00
55304;PMS7003;65692;51.378;19.824;2023-05-21T09:04:11;4.00;4.00;3.50
55304;PMS7003;65692;51.378;19.824;2023-05-21T09:06:46;7.25;5.75;4.25
55304;PMS7003;65692;51.378;19.824;2023-05-21T09:09:19;5.00;5.00;3.50
55304;PMS7003;65692;51.378;19.824;2023-05-21T09:11:50;7.50;7.50;5.00
55304;PMS7003;65692;51.378;19.824;2023-05-21T09:14:16;5.00;5.00;4.75
55304;PMS7003;65692;51.378;19.824;2023-05-21T09:16:44;5.75;5.75;4.00
55304;PMS7003;65692;51.378;19.824;2023-05-21T09:19:13;4.75;4.00;3.00
55304;PMS7003;65692;51.378;19.824;2023-05-21T09:21:40;4.00;4.00;3.50
55304;PMS7003;65692;51.378;19.824;2023-05-21T09:24:08;4.75;4.75;3.50
55304;PMS7003;65692;51.378;19.824;2023-05-21T09:26:34;3.75;3.75;3.00
55304;PMS7003;65692;51.378;19.824;2023-05-21T09:29:01;4.75;4.75;2.75
55304;PMS7003;65692;51.378;19.824;2023-05-21T09:31:28;3.25;2.50;2.25
55304;PMS7003;65692;51.378;19.824;2023-05-21T09:33:55;4.00;4.00;3.25
55304;PMS7003;65692;51.378;19.824;2023-05-21T09:36:22;5.00;5.00;4.00
55304;PMS7003;65692;51.378;19.824;2023-05-21T09:38:49;3.00;3.00;3.00
55304;PMS7003;65692;51.378;19.824;2023-05-21T09:41:17;6.25;5.50;4.50
55304;PMS7003;65692;51.378;19.824;2023-05-21T09:43:47;5.00;5.00;4.00
55304;PMS7003;65692;51.378;19.824;2023-05-21T09:46:14;4.75;4.75;3.75
55304;PMS7003;65692;51.378;19.824;2023-05-21T09:48:41;5.00;3.75;3.75
55304;PMS7003;65692;51.378;19.824;2023-05-21T09:51:11;6.50;4.75;4.50
55304;PMS7003;65692;51.378;19.824;2023-05-21T09:53:55;6.25;6.25;3.75
55304;PMS7003;65692;51.378;19.824;2023-05-21T09:56:25;5.00;5.00;4.00
55304;PMS7003;65692;51.378;19.824;2023-05-21T09:58:52;3.75;3.75;3.75
55304;PMS7003;65692;51.378;19.824;2023-05-21T10:01:20;7.75;6.25;4.00
55304;PMS7003;65692;51.378;19.824;2023-05-21T10:03:49;4.50;4.25;4.25
55304;PMS7003;65692;51.378;19.824;2023-05-21T10:06:17;3.00;3.00;2.25
55304;PMS7003;65692;51.378;19.824;2023-05-21T10:08:44;3.25;3.00;3.00
55304;PMS7003;65692;51.378;19.824;2023-05-21T10:11:13;6.00;5.00;4.00
55304;PMS7003;65692;51.378;19.824;2023-05-21T10:13:43;4.75;4.75;3.75
55304;PMS7003;65692;51.378;19.824;2023-05-21T10:16:10;3.00;3.00;3.00
55304;PMS7003;65692;51.378;19.824;2023-05-21T10:18:38;7.25;4.75;3.00
55304;PMS7003;65692;51.378;19.824;2023-05-21T10:21:05;4.50;3.75;3.50
55304;PMS7003;65692;51.378;19.824;2023-05-21T10:23:33;6.50;5.00;4.00
55304;PMS7003;65692;51.378;19.824;2023-05-21T10:26:01;6.25;5.00;4.00
55304;PMS7003;65692;51.378;19.824;2023-05-21T10:28:29;4.75;4.75;3.75
55304;PMS7003;65692;51.378;19.824;2023-05-21T10:30:56;4.00;4.00;3.00
55304;PMS7003;65692;51.378;19.824;2023-05-21T10:33:23;3.75;3.75;3.25
55304;PMS7003;65692;51.378;19.824;2023-05-21T10:35:50;2.00;2.00;1.00
55304;PMS7003;65692;51.378;19.824;2023-05-21T10:38:18;7.50;6.00;5.00
55304;PMS7003;65692;51.378;19.824;2023-05-21T10:40:46;6.25;6.25;4.00
55304;PMS7003;65692;51.378;19.824;2023-05-21T10:45:49;3.25;3.25;2.25
55304;PMS7003;65692;51.378;19.824;2023-05-21T10:53:27;4.50;4.50;3.00
55304;PMS7003;65692;51.378;19.824;2023-05-21T11:01:10;3.75;3.25;2.75
55304;PMS7003;65692;51.378;19.824;2023-05-21T11:03:37;4.50;4.50;3.50
55304;PMS7003;65692;51.378;19.824;2023-05-21T11:06:04;6.00;4.00;3.50
55304;PMS7003;65692;51.378;19.824;2023-05-21T11:08:31;3.50;3.50;3.00
55304;PMS7003;65692;51.378;19.824;2023-05-21T11:11:01;4.00;3.75;3.00
55304;PMS7003;65692;51.378;19.824;2023-05-21T11:13:28;4.50;3.25;3.25
55304;PMS7003;65692;51.378;19.824;2023-05-21T11:16:13;3.25;3.25;3.00
55304;PMS7003;65692;51.378;19.824;2023-05-21T11:26:16;5.75;4.75;4.00
55304;PMS7003;65692;51.378;19.824;2023-05-21T11:28:42;5.00;5.00;4.00
55304;PMS7003;65692;51.378;19.824;2023-05-21T11:31:21;1.25;0.75;0.50
55304;PMS7003;65692;51.378;19.824;2023-05-21T11:36:45;5.25;5.25;4.50
55304;PMS7003;65692;51.378;19.824;2023-05-21T11:39:18;3.25;3.25;2.75
55304;PMS7003;65692;51.378;19.824;2023-05-21T11:41:56;3.50;3.50;3.00
55304;PMS7003;65692;51.378;19.824;2023-05-21T11:47:09;3.50;3.00;2.25
55304;PMS7003;65692;51.378;19.824;2023-05-21T11:49:36;4.00;4.00;4.00
55304;PMS7003;65692;51.378;19.824;2023-05-21T11:52:04;4.00;4.00;4.00
55304;PMS7003;65692;51.378;19.824;2023-05-21T11:54:31;3.00;3.00;2.50
55304;PMS7003;65692;51.378;19.824;2023-05-21T11:57:06;6.25;6.25;5.25
55304;PMS7003;65692;51.378;19.824;2023-05-21T11:59:33;3.25;3.25;3.25
55304;PMS7003;65692;51.378;19.824;2023-05-21T12:02:00;6.25;4.75;4.00
55304;PMS7003;65692;51.378;19.824;2023-05-21T12:04:29;6.00;6.00;5.00
55304;PMS7003;65692;51.378;19.824;2023-05-21T12:06:55;5.25;5.25;4.00
55304;PMS7003;65692;51.378;19.824;2023-05-21T12:09:23;5.00;5.00;4.00
55304;PMS7003;65692;51.378;19.824;2023-05-21T12:11:50;6.50;4.50;4.00
55304;PMS7003;65692;51.378;19.824;2023-05-21T12:14:16;4.00;3.75;3.00
55304;PMS7003;65692;51.378;19.824;2023-05-21T12:16:43;5.50;4.00;3.75
55304;PMS7003;65692;51.378;19.824;2023-05-21T12:19:10;5.00;4.00;3.75
55304;PMS7003;65692;51.378;19.824;2023-05-21T12:21:36;4.00;3.50;3.00
55304;PMS7003;65692;51.378;19.824;2023-05-21T12:24:03;2.00;2.00;1.75
55304;PMS7003;65692;51.378;19.824;2023-05-21T12:26:29;4.00;4.00;3.00
55304;PMS7003;65692;51.378;19.824;2023-05-21T12:28:58;4.75;4.75;4.00
55304;PMS7003;65692;51.378;19.824;2023-05-21T12:31:25;4.00;4.00;3.75
55304;PMS7003;65692;51.378;19.824;2023-05-21T12:33:52;3.50;3.50;3.00
55304;PMS7003;65692;51.378;19.824;2023-05-21T12:36:25;5.25;5.25;4.75
55304;PMS7003;65692;51.378;19.824;2023-05-21T12:38:52;5.75;5.75;5.00
55304;PMS7003;65692;51.378;19.824;2023-05-21T12:41:19;5.75;4.25;4.00
55304;PMS7003;65692;51.378;19.824;2023-05-21T12:43:47;5.75;4.25;3.50
55304;PMS7003;65692;51.378;19.824;2023-05-21T12:46:15;5.00;5.00;4.75
55304;PMS7003;65692;51.378;19.824;2023-05-21T12:48:49;4.25;4.25;4.00
55304;PMS7003;65692;51.378;19.824;2023-05-21T12:51:18;6.50;6.50;5.50
55304;PMS7003;65692;51.378;19.824;2023-05-21T12:53:45;5.00;4.00;4.00
55304;PMS7003;65692;51.378;19.824;2023-05-21T12:56:12;7.50;7.00;4.25
55304;PMS7003;65692;51.378;19.824;2023-05-21T12:58:39;6.00;4.25;3.50
55304;PMS7003;65692;51.378;19.824;2023-05-21T13:01:06;6.00;6.00;5.25
55304;PMS7003;65692;51.378;19.824;2023-05-21T13:03:34;5.75;5.75;4.75
55304;PMS7003;65692;51.378;19.824;2023-05-21T13:06:01;6.00;6.00;4.75
55304;PMS7003;65692;51.378;19.824;2023-05-21T13:08:27;8.25;5.00;4.50
55304;PMS7003;65692;51.378;19.824;2023-05-21T13:10:54;6.00;6.00;5.50
55304;PMS7003;65692;51.378;19.824;2023-05-21T13:13:21;6.00;6.00;5.00
55304;PMS7003;65692;51.378;19.824;2023-05-21T13:15:47;5.00;5.00;4.25
55304;PMS7003;65692;51.378;19.824;2023-05-21T13:18:14;6.00;5.25;4.25
55304;PMS7003;65692;51.378;19.824;2023-05-21T13:20:41;6.75;6.75;6.00
55304;PMS7003;65692;51.378;19.824;2023-05-21T13:23:08;5.50;4.75;4.00
55304;PMS7003;65692;51.378;19.824;2023-05-21T13:25:37;6.25;6.25;5.25
55304;PMS7003;65692;51.378;19.824;2023-05-21T13:28:03;7.50;7.50;6.00
55304;PMS7003;65692;51.378;19.824;2023-05-21T13:30:35;6.75;6.75;5.00
55304;PMS7003;65692;51.378;19.824;2023-05-21T13:33:02;8.25;7.25;6.00
55304;PMS7003;65692;51.378;19.824;2023-05-21T13:35:29;4.75;4.75;4.50
55304;PMS7003;65692;51.378;19.824;2023-05-21T13:37:56;7.00;7.00;5.00
55304;PMS7003;65692;51.378;19.824;2023-05-21T13:40:22;3.75;3.75;3.00
55304;PMS7003;65692;51.378;19.824;2023-05-21T13:42:49;4.75;4.75;4.25
55304;PMS7003;65692;51.378;19.824;2023-05-21T13:45:16;6.25;6.00;4.25
55304;PMS7003;65692;51.378;19.824;2023-05-21T13:47:44;6.00;6.00;4.75
55304;PMS7003;65692;51.378;19.824;2023-05-21T13:50:11;7.50;7.50;5.00
55304;PMS7003;65692;51.378;19.824;2023-05-21T13:52:37;6.00;6.00;5.00
55304;PMS7003;65692;51.378;19.824;2023-05-21T13:55:04;5.25;5.25;4.75
55304;PMS7003;65692;51.378;19.824;2023-05-21T13:57:31;5.75;5.50;5.00
55304;PMS7003;65692;51.378;19.824;2023-05-21T13:59:58;7.00;7.00;4.75
55304;PMS7003;65692;51.378;19.824;2023-05-21T14:02:26;7.00;6.00;4.75
55304;PMS7003;65692;51.378;19.824;2023-05-21T14:04:52;7.00;6.50;6.00
55304;PMS7003;65692;51.378;19.824;2023-05-21T14:07:19;5.25;5.25;3.75
55304;PMS7003;65692;51.378;19.824;2023-05-21T14:09:46;5.25;5.25;4.75
55304;PMS7003;65692;51.378;19.824;2023-05-21T14:12:13;6.75;5.25;4.25
55304;PMS7003;65692;51.378;19.824;2023-05-21T14:14:39;5.00;5.00;4.00
55304;PMS7003;65692;51.378;19.824;2023-05-21T14:17:06;7.00;5.75;4.75
55304;PMS7003;65692;51.378;19.824;2023-05-21T14:19:33;6.25;5.25;4.50
55304;PMS7003;65692;51.378;19.824;2023-05-21T14:21:59;5.25;5.25;4.50
55304;PMS7003;65692;51.378;19.824;2023-05-21T14:24:26;5.00;5.00;4.50
55304;PMS7003;65692;51.378;19.824;2023-05-21T14:26:52;4.75;4.75;4.50
55304;PMS7003;65692;51.378;19.824;2023-05-21T14:29:19;5.00;5.00;5.00
55304;PMS7003;65692;51.378;19.824;2023-05-21T14:31:45;3.75;3.75;3.75
55304;PMS7003;65692;51.378;19.824;2023-05-21T14:34:12;5.00;4.50;3.50
55304;PMS7003;65692;51.378;19.824;2023-05-21T14:36:39;4.50;4.50;4.00
55304;PMS7003;65692;51.378;19.824;2023-05-21T14:39:05;6.25;5.25;4.00
55304;PMS7003;65692;51.378;19.824;2023-05-21T14:41:32;4.50;4.50;3.00
55304;PMS7003;65692;51.378;19.824;2023-05-21T14:43:58;5.00;5.00;4.75
55304;PMS7003;65692;51.378;19.824;2023-05-21T14:46:25;5.25;4.50;3.75
55304;PMS7003;65692;51.378;19.824;2023-05-21T14:48:51;5.50;5.25;4.75
55304;PMS7003;65692;51.378;19.824;2023-05-21T14:51:18;6.25;5.00;4.00
55304;PMS7003;65692;51.378;19.824;2023-05-21T14:53:45;2.75;2.75;2.25
55304;PMS7003;65692;51.378;19.824;2023-05-21T14:56:11;5.00;5.00;4.00
55304;PMS7003;65692;51.378;19.824;2023-05-21T14:58:38;5.00;5.00;4.50
55304;PMS7003;65692;51.378;19.824;2023-05-21T15:01:05;5.75;4.75;4.00
55304;PMS7003;65692;51.378;19.824;2023-05-21T15:03:31;3.25;2.75;2.75
55304;PMS7003;65692;51.378;19.824;2023-05-21T15:05:58;4.75;4.75;3.75
55304;PMS7003;65692;51.378;19.824;2023-05-21T15:08:24;8.75;5.75;4.75
55304;PMS7003;65692;51.378;19.824;2023-05-21T15:10:51;4.50;4.00;4.00
55304;PMS7003;65692;51.378;19.824;2023-05-21T15:13:17;5.50;4.75;4.25
55304;PMS7003;65692;51.378;19.824;2023-05-21T15:15:44;5.00;5.00;4.75
55304;PMS7003;65692;51.378;19.824;2023-05-21T15:18:11;4.00;4.00;3.00
55304;PMS7003;65692;51.378;19.824;2023-05-21T15:20:38;3.75;3.75;3.50
55304;PMS7003;65692;51.378;19.824;2023-05-21T15:23:04;2.75;2.00;2.00
55304;PMS7003;65692;51.378;19.824;2023-05-21T15:25:41;6.00;6.00;5.00
55304;PMS7003;65692;51.378;19.824;2023-05-21T15:28:08;4.25;4.25;3.50
55304;PMS7003;65692;51.378;19.824;2023-05-21T15:30:34;3.00;3.00;3.00
55304;PMS7003;65692;51.378;19.824;2023-05-21T15:33:01;7.00;5.50;4.75
55304;PMS7003;65692;51.378;19.824;2023-05-21T15:35:27;5.75;5.75;5.25
55304;PMS7003;65692;51.378;19.824;2023-05-21T15:37:54;4.25;4.25;4.00
55304;PMS7003;65692;51.378;19.824;2023-05-21T15:40:20;6.00;3.75;3.00
55304;PMS7003;65692;51.378;19.824;2023-05-21T15:42:49;4.00;4.00;3.25
55304;PMS7003;65692;51.378;19.824;2023-05-21T15:45:16;2.00;1.00;1.00
55304;PMS7003;65692;51.378;19.824;2023-05-21T15:47:43;4.75;3.75;3.75
55304;PMS7003;65692;51.378;19.824;2023-05-21T15:50:09;6.25;4.75;4.75
55304;PMS7003;65692;51.378;19.824;2023-05-21T15:52:36;7.50;6.00;5.75
55304;PMS7003;65692;51.378;19.824;2023-05-21T15:55:02;4.75;3.75;3.25
55304;PMS7003;65692;51.378;19.824;2023-05-21T15:57:29;5.50;5.00;4.00
55304;PMS7003;65692;51.378;19.824;2023-05-21T15:59:55;4.75;3.75;3.25
55304;PMS7003;65692;51.378;19.824;2023-05-21T16:02:22;8.00;6.50;5.25
55304;PMS7003;65692;51.378;19.824;2023-05-21T16:04:48;4.00;4.00;4.00
55304;PMS7003;65692;51.378;19.824;2023-05-21T16:07:17;4.75;4.75;4.00
55304;PMS7003;65692;51.378;19.824;2023-05-21T16:09:44;4.00;4.00;4.00
55304;PMS7003;65692;51.378;19.824;2023-05-21T16:12:13;4.50;4.50;4.00
55304;PMS7003;65692;51.378;19.824;2023-05-21T16:14:40;5.00;4.00;3.75
55304;PMS7003;65692;51.378;19.824;2023-05-21T16:17:06;4.75;3.50;3.50
55304;PMS7003;65692;51.378;19.824;2023-05-21T16:19:33;4.75;3.75;3.75
55304;PMS7003;65692;51.378;19.824;2023-05-21T16:21:59;4.75;4.75;3.75
55304;PMS7003;65692;51.378;19.824;2023-05-21T16:24:27;5.25;5.00;4.00
55304;PMS7003;65692;51.378;19.824;2023-05-21T16:26:53;6.00;6.00;5.25
55304;PMS7003;65692;51.378;19.824;2023-05-21T16:29:20;6.50;5.25;5.00
55304;PMS7003;65692;51.378;19.824;2023-05-21T16:31:47;5.00;5.00;4.75
55304;PMS7003;65692;51.378;19.824;2023-05-21T16:34:13;4.25;4.00;3.75
55304;PMS7003;65692;51.378;19.824;2023-05-21T16:36:40;5.75;5.75;5.00
55304;PMS7003;65692;51.378;19.824;2023-05-21T16:39:12;6.00;4.00;4.00
55304;PMS7003;65692;51.378;19.824;2023-05-21T16:41:39;4.25;4.25;4.00
55304;PMS7003;65692;51.378;19.824;2023-05-21T16:44:05;5.25;5.25;4.50
55304;PMS7003;65692;51.378;19.824;2023-05-21T16:46:32;5.50;5.00;4.00
55304;PMS7003;65692;51.378;19.824;2023-05-21T16:48:58;5.75;5.75;5.00
55304;PMS7003;65692;51.378;19.824;2023-05-21T16:51:25;6.50;5.75;4.75
55304;PMS7003;65692;51.378;19.824;2023-05-21T16:53:51;5.75;5.75;5.00
55304;PMS7003;65692;51.378;19.824;2023-05-21T16:56:18;4.75;4.75;4.50
55304;PMS7003;65692;51.378;19.824;2023-05-21T16:58:44;5.50;5.00;4.50
55304;PMS7003;65692;51.378;19.824;2023-05-21T17:01:11;5.25;5.25;4.75
55304;PMS7003;65692;51.378;19.824;2023-05-21T17:03:38;5.00;3.75;3.50
55304;PMS7003;65692;51.378;19.824;2023-05-21T17:06:08;4.75;4.75;4.00
55304;PMS7003;65692;51.378;19.824;2023-05-21T17:08:34;5.75;4.00;3.75
55304;PMS7003;65692;51.378;19.824;2023-05-21T17:11:01;6.75;6.75;6.00
55304;PMS7003;65692;51.378;19.824;2023-05-21T17:13:28;4.50;4.50;4.00
55304;PMS7003;65692;51.378;19.824;2023-05-21T17:15:54;7.00;4.25;4.00
55304;PMS7003;65692;51.378;19.824;2023-05-21T17:18:21;6.25;6.25;5.25
55304;PMS7003;65692;51.378;19.824;2023-05-21T17:20:47;4.00;4.00;4.00
55304;PMS7003;65692;51.378;19.824;2023-05-21T17:23:14;7.00;6.50;5.75
55304;PMS7003;65692;51.378;19.824;2023-05-21T17:25:41;4.75;4.75;4.00
55304;PMS7003;65692;51.378;19.824;2023-05-21T17:28:08;6.25;4.25;4.00
55304;PMS7003;65692;51.378;19.824;2023-05-21T17:30:35;5.75;4.50;3.75
55304;PMS7003;65692;51.378;19.824;2023-05-21T17:33:01;7.00;6.25;4.00